createdAt,value
2019-05-21T00:01:01.821Z,14.40
2019-05-21T00:03:30.495Z,14.40
2019-05-21T00:05:59.189Z,14.30
2019-05-21T00:08:27.856Z,14.30
2019-05-21T00:10:56.476Z,14.30
2019-05-21T00:13:25.164Z,14.30
2019-05-21T00:15:53.836Z,14.30
2019-05-21T00:18:22.526Z,14.30
2019-05-21T00:20:51.658Z,14.20
2019-05-21T00:23:20.284Z,14.20
2019-05-21T00:25:48.917Z,14.20
2019-05-21T00:28:29.447Z,14.20
2019-05-21T00:31:34.309Z,14.10
2019-05-21T00:34:44.010Z,14.10
2019-05-21T00:37:46.034Z,14.10
2019-05-21T00:40:50.761Z,14.10
2019-05-21T00:43:25.207Z,14.10
2019-05-21T00:45:53.894Z,14.10
2019-05-21T00:48:22.571Z,14.10
2019-05-21T00:50:51.259Z,14.00
2019-05-21T00:53:20.052Z,14.00
2019-05-21T00:55:49.813Z,14.00
2019-05-21T00:58:18.645Z,14.00
2019-05-21T01:00:47.333Z,13.90
2019-05-21T01:03:16.015Z,14.00
2019-05-21T01:05:44.827Z,14.00
2019-05-21T01:08:13.450Z,13.90
2019-05-21T01:10:42.123Z,13.90
2019-05-21T01:13:10.744Z,13.90
2019-05-21T01:15:39.401Z,13.90
2019-05-21T01:18:08.201Z,13.90
2019-05-21T01:20:36.860Z,13.90
2019-05-21T01:23:05.681Z,13.90
2019-05-21T01:25:34.319Z,13.90
2019-05-21T01:28:02.994Z,13.90
2019-05-21T01:30:31.736Z,13.90
2019-05-21T01:33:00.375Z,13.90
2019-05-21T01:35:29.039Z,13.90
2019-05-21T01:37:57.681Z,13.90
2019-05-21T01:40:26.368Z,13.90
2019-05-21T01:42:54.989Z,13.90
2019-05-21T01:45:23.683Z,13.90
2019-05-21T01:47:52.339Z,13.90
2019-05-21T01:50:21.014Z,13.90
2019-05-21T01:52:49.783Z,13.90
2019-05-21T01:55:18.547Z,13.90
2019-05-21T01:57:47.231Z,13.90
2019-05-21T02:00:16.383Z,13.90
2019-05-21T02:02:45.067Z,13.90
2019-05-21T02:05:13.882Z,13.80
2019-05-21T02:07:42.572Z,13.90
2019-05-21T02:10:11.373Z,13.80
2019-05-21T02:12:40.051Z,13.80
2019-05-21T02:15:08.895Z,13.80
2019-05-21T02:17:37.555Z,13.80
2019-05-21T02:20:06.614Z,13.80
2019-05-21T02:22:35.368Z,13.80
2019-05-21T02:25:06.288Z,13.80
2019-05-21T02:27:35.058Z,13.80
2019-05-21T02:30:05.004Z,13.80
2019-05-21T02:32:34.227Z,13.80
2019-05-21T02:35:02.990Z,13.80
2019-05-21T02:37:31.694Z,13.70
2019-05-21T02:40:00.447Z,13.80
2019-05-21T02:42:29.227Z,13.80
2019-05-21T02:44:58.168Z,13.70
2019-05-21T02:47:26.997Z,13.70
2019-05-21T02:49:55.698Z,13.80
2019-05-21T02:52:24.466Z,13.80
2019-05-21T02:54:53.869Z,13.80
2019-05-21T02:57:24.256Z,13.80
2019-05-21T02:59:55.265Z,13.80
2019-05-21T03:02:28.733Z,13.80
2019-05-21T03:04:57.437Z,13.80
2019-05-21T03:07:26.302Z,13.80
2019-05-21T03:09:55.144Z,13.80
2019-05-21T03:12:23.785Z,13.80
2019-05-21T03:14:52.540Z,13.80
2019-05-21T03:17:21.252Z,13.80
2019-05-21T03:19:50.011Z,13.80
2019-05-21T03:22:18.704Z,13.80
2019-05-21T03:24:47.555Z,13.80
2019-05-21T03:27:16.271Z,13.90
2019-05-21T03:29:45.106Z,13.80
2019-05-21T03:32:13.733Z,13.90
2019-05-21T03:34:42.490Z,13.90
2019-05-21T03:37:11.259Z,13.80
2019-05-21T03:39:39.951Z,13.90
2019-05-21T03:42:08.707Z,13.90
2019-05-21T03:44:37.541Z,13.90
2019-05-21T03:47:06.294Z,13.90
2019-05-21T03:49:34.938Z,13.90
2019-05-21T03:52:03.702Z,13.90
2019-05-21T03:54:32.465Z,13.90
2019-05-21T03:57:01.297Z,13.90
2019-05-21T03:59:30.060Z,13.90
2019-05-21T04:01:58.691Z,13.90
2019-05-21T04:04:27.458Z,13.90
2019-05-21T04:06:56.385Z,13.90
2019-05-21T04:09:25.074Z,13.90
2019-05-21T04:11:53.794Z,13.90
2019-05-21T04:14:33.480Z,13.90
2019-05-21T04:17:20.184Z,13.90
2019-05-21T04:19:50.065Z,13.90
2019-05-21T04:22:19.255Z,13.90
2019-05-21T04:24:48.026Z,13.90
2019-05-21T04:27:16.793Z,13.90
2019-05-21T04:29:45.483Z,13.80
2019-05-21T04:32:14.111Z,13.80
2019-05-21T04:34:42.809Z,13.80
2019-05-21T04:37:12.136Z,13.80
2019-05-21T04:39:41.317Z,13.80
2019-05-21T04:42:10.233Z,13.80
2019-05-21T04:44:39.001Z,13.80
2019-05-21T04:47:07.832Z,13.80
2019-05-21T04:49:36.599Z,13.80
2019-05-21T04:52:05.424Z,13.80
2019-05-21T04:54:34.214Z,13.80
2019-05-21T04:57:02.963Z,13.80
2019-05-21T04:59:31.660Z,13.80
2019-05-21T05:02:00.422Z,13.80
2019-05-21T05:04:29.193Z,13.80
2019-05-21T05:06:57.914Z,13.80
2019-05-21T05:09:26.683Z,13.80
2019-05-21T05:11:55.426Z,13.80
2019-05-21T05:14:24.190Z,13.80
2019-05-21T05:16:52.961Z,13.80
2019-05-21T05:19:21.725Z,13.90
2019-05-21T05:21:50.422Z,13.90
2019-05-21T05:24:19.263Z,13.90
2019-05-21T05:26:47.971Z,13.90
2019-05-21T05:29:16.682Z,13.90
2019-05-21T05:31:45.470Z,13.90
2019-05-21T05:34:14.171Z,14.00
2019-05-21T05:36:42.929Z,14.00
2019-05-21T05:39:11.716Z,14.00
2019-05-21T05:41:40.451Z,14.00
2019-05-21T05:44:09.230Z,13.90
2019-05-21T05:46:38.096Z,14.00
2019-05-21T05:49:08.539Z,14.00
2019-05-21T05:51:37.227Z,14.00
2019-05-21T05:54:07.769Z,14.00
2019-05-21T05:56:36.424Z,14.00
2019-05-21T05:59:05.389Z,14.00
2019-05-21T06:01:34.994Z,14.00
2019-05-21T06:04:03.699Z,14.00
2019-05-21T06:06:32.530Z,14.00
2019-05-21T06:09:01.271Z,14.00
2019-05-21T06:11:30.037Z,13.90
2019-05-21T06:13:58.889Z,14.00
2019-05-21T06:16:27.700Z,14.00
2019-05-21T06:18:56.588Z,14.00
2019-05-21T06:21:25.292Z,13.90
2019-05-21T06:23:54.082Z,13.90
2019-05-21T06:26:22.855Z,13.90
2019-05-21T06:28:51.669Z,13.90
2019-05-21T06:31:20.442Z,14.00
2019-05-21T06:33:49.260Z,13.90
2019-05-21T06:36:17.934Z,14.00
2019-05-21T06:38:46.750Z,13.90
2019-05-21T06:41:15.464Z,14.00
2019-05-21T06:43:44.216Z,14.10
2019-05-21T06:46:13.002Z,14.10
2019-05-21T06:48:41.711Z,14.20
2019-05-21T06:51:10.410Z,14.20
2019-05-21T06:53:39.173Z,14.30
2019-05-21T06:56:08.022Z,14.40
2019-05-21T06:58:36.793Z,14.40
2019-05-21T07:01:05.613Z,14.50
2019-05-21T07:03:34.256Z,14.50
2019-05-21T07:06:03.020Z,14.40
2019-05-21T07:08:34.924Z,14.50
2019-05-21T07:11:02.309Z,14.50
2019-05-21T07:13:31.283Z,14.50
2019-05-21T07:16:00.159Z,14.60
2019-05-21T07:18:28.886Z,14.60
2019-05-21T07:21:02.473Z,14.60
2019-05-21T07:23:30.867Z,14.50
2019-05-21T07:25:59.492Z,14.50
2019-05-21T07:28:28.411Z,14.40
2019-05-21T07:30:57.032Z,14.50
2019-05-21T07:33:25.700Z,14.40
2019-05-21T07:35:54.391Z,14.50
2019-05-21T07:38:23.072Z,14.50
2019-05-21T07:40:51.845Z,14.50
2019-05-21T07:43:20.548Z,14.50
2019-05-21T07:45:49.222Z,14.50
2019-05-21T07:48:17.846Z,14.60
2019-05-21T07:50:46.616Z,14.70
2019-05-21T07:53:15.303Z,14.70
2019-05-21T07:55:43.948Z,14.70
2019-05-21T07:58:12.719Z,14.70
2019-05-21T08:00:41.409Z,14.80
2019-05-21T08:03:10.101Z,14.80
2019-05-21T08:05:38.919Z,14.90
2019-05-21T08:08:07.620Z,15.00
2019-05-21T08:10:36.398Z,14.80
2019-05-21T08:13:05.237Z,14.80
2019-05-21T08:15:34.001Z,14.70
2019-05-21T08:18:02.629Z,14.70
2019-05-21T08:20:31.438Z,14.60
2019-05-21T08:23:00.088Z,14.60
2019-05-21T08:25:28.808Z,14.60
2019-05-21T08:27:57.575Z,14.60
2019-05-21T08:30:26.336Z,14.50
2019-05-21T08:32:55.024Z,14.50
2019-05-21T08:35:23.703Z,14.60
2019-05-21T08:37:52.329Z,14.50
2019-05-21T08:40:21.270Z,14.40
2019-05-21T08:42:50.027Z,14.40
2019-05-21T08:45:20.257Z,14.40
2019-05-21T08:47:48.896Z,14.50
2019-05-21T08:50:18.887Z,14.50
2019-05-21T08:52:47.587Z,14.40
2019-05-21T08:55:18.238Z,14.50
2019-05-21T08:58:05.050Z,14.50
2019-05-21T09:00:19.946Z,14.50
2019-05-21T21:32:06.030Z,12.80
2019-05-21T21:34:35.835Z,12.70
2019-05-21T21:37:07.216Z,12.80
2019-05-21T21:39:38.358Z,12.80
2019-05-21T21:42:19.496Z,12.70
2019-05-21T21:45:01.448Z,12.70
2019-05-21T21:47:43.145Z,12.70
2019-05-21T21:50:22.086Z,12.70
2019-05-21T21:53:03.615Z,12.60
2019-05-21T21:55:43.910Z,12.70
2019-05-21T21:58:25.865Z,12.60
2019-05-21T22:01:28.185Z,12.70
2019-05-21T22:04:08.865Z,12.60
2019-05-21T22:06:50.466Z,12.60
2019-05-21T22:09:34.535Z,12.60
2019-05-21T22:12:16.297Z,12.60
2019-05-21T22:14:56.947Z,12.60
2019-05-21T22:17:36.655Z,12.50
2019-05-21T22:20:15.995Z,12.50
2019-05-21T22:22:55.974Z,12.50
2019-05-21T22:25:36.276Z,12.50
2019-05-21T22:28:17.628Z,12.50
2019-05-21T22:30:58.527Z,12.60
2019-05-21T22:33:39.555Z,12.50
2019-05-21T22:36:17.397Z,12.50
2019-05-21T22:38:58.726Z,12.50
2019-05-21T22:41:29.183Z,12.50
2019-05-21T22:44:10.452Z,12.50
2019-05-21T22:46:40.856Z,12.50
2019-05-21T22:49:11.043Z,12.50
2019-05-21T22:51:40.793Z,12.50
2019-05-21T22:54:10.293Z,12.50
2019-05-21T22:56:39.735Z,12.50
2019-05-21T22:59:09.484Z,12.50
2019-05-21T23:01:39.064Z,12.40
2019-05-21T23:04:08.595Z,12.40
2019-05-21T23:06:37.908Z,12.40
2019-05-21T23:09:08.156Z,12.40
2019-05-21T23:11:37.569Z,12.50
2019-05-21T23:14:07.759Z,12.50
2019-05-21T23:16:37.238Z,12.50
2019-05-21T23:19:09.225Z,12.50
2019-05-21T23:21:38.517Z,12.50
2019-05-21T23:24:10.338Z,12.50
2019-05-21T23:26:39.905Z,12.40
2019-05-21T23:29:10.167Z,12.50
2019-05-21T23:31:40.024Z,12.50
2019-05-21T23:34:10.729Z,12.40
2019-05-21T23:36:41.885Z,12.40
2019-05-21T23:39:13.602Z,12.40
2019-05-21T23:41:44.692Z,12.40
2019-05-21T23:44:15.005Z,12.40
2019-05-21T23:46:45.568Z,12.40
2019-05-21T23:49:16.283Z,12.40
2019-05-21T23:51:46.016Z,12.40
2019-05-21T23:54:16.189Z,12.40
2019-05-21T23:56:46.664Z,12.40
2019-05-21T23:59:16.423Z,12.40
